createdAt,value
2018-06-28T00:01:07.741Z,15.10
2018-06-28T00:03:37.098Z,14.80
2018-06-28T00:06:06.463Z,14.80
2018-06-28T00:08:35.823Z,14.80
2018-06-28T00:11:05.264Z,15.00
2018-06-28T00:13:34.604Z,14.90
2018-06-28T00:16:04.011Z,14.80
2018-06-28T00:18:33.323Z,14.80
2018-06-28T00:21:02.701Z,14.60
2018-06-28T00:23:32.023Z,14.60
2018-06-28T00:26:01.384Z,14.70
2018-06-28T00:28:30.779Z,14.80
2018-06-28T00:31:00.200Z,14.70
2018-06-28T00:33:29.569Z,14.60
2018-06-28T00:35:58.925Z,14.70
2018-06-28T00:38:28.503Z,14.60
2018-06-28T00:40:57.852Z,14.60
2018-06-28T00:43:27.209Z,14.80
2018-06-28T00:45:56.533Z,14.50
2018-06-28T00:48:25.888Z,14.40
2018-06-28T00:50:55.257Z,14.00
2018-06-28T00:55:53.940Z,14.00
2018-06-28T00:58:23.349Z,14.10
2018-06-28T01:00:52.793Z,14.30
2018-06-28T01:03:22.200Z,14.20
2018-06-28T01:05:51.560Z,14.30
2018-06-28T01:08:20.960Z,14.40
2018-06-28T01:10:50.340Z,14.50
2018-06-28T01:13:19.705Z,14.10
2018-06-28T01:15:49.056Z,14.30
2018-06-28T01:18:18.422Z,14.40
2018-06-28T01:20:47.824Z,14.30
2018-06-28T01:23:17.204Z,14.30
2018-06-28T01:25:46.612Z,14.40
2018-06-28T01:28:15.969Z,14.20
2018-06-28T01:30:45.575Z,14.30
2018-06-28T01:33:14.920Z,14.30
2018-06-28T01:35:44.345Z,14.50
2018-06-28T01:40:42.579Z,14.40
2018-06-28T01:43:37.940Z,14.30
2018-06-28T01:46:07.415Z,14.30
2018-06-28T01:48:36.763Z,13.90
2018-06-28T01:51:06.179Z,14.10
2018-06-28T01:56:04.471Z,14.20
2018-06-28T01:58:33.831Z,14.20
2018-06-28T02:01:03.276Z,14.10
2018-06-28T02:03:32.644Z,14.30
2018-06-28T02:06:02.035Z,14.10
2018-06-28T02:08:31.436Z,14.20
2018-06-28T02:11:00.821Z,14.10
2018-06-28T02:13:30.175Z,13.80
2018-06-28T02:15:59.539Z,13.90
2018-06-28T02:18:28.870Z,13.90
2018-06-28T02:20:58.270Z,13.90
2018-06-28T02:23:27.589Z,13.80
2018-06-28T02:25:56.984Z,13.70
2018-06-28T02:30:55.336Z,13.60
2018-06-28T02:33:24.685Z,13.50
2018-06-28T02:35:54.025Z,13.70
2018-06-28T02:38:23.487Z,13.80
2018-06-28T02:40:52.945Z,14.00
2018-06-28T02:43:22.310Z,13.80
2018-06-28T02:45:51.654Z,13.80
2018-06-28T02:48:21.084Z,13.80
2018-06-28T02:50:50.447Z,14.00
2018-06-28T02:53:19.808Z,14.10
2018-06-28T02:55:49.157Z,14.00
2018-06-28T03:00:47.527Z,14.10
2018-06-28T03:03:16.894Z,13.90
2018-06-28T03:05:46.235Z,14.10
2018-06-28T03:08:15.599Z,14.20
2018-06-28T03:10:44.912Z,14.10
2018-06-28T03:13:14.431Z,14.10
2018-06-28T03:15:43.756Z,14.00
2018-06-28T03:18:13.125Z,14.00
2018-06-28T03:20:42.519Z,13.90
2018-06-28T03:23:11.904Z,13.90
2018-06-28T03:25:41.248Z,14.00
2018-06-28T03:28:10.615Z,14.00
2018-06-28T03:30:39.940Z,13.80
2018-06-28T03:33:09.291Z,13.70
2018-06-28T03:35:38.630Z,13.60
2018-06-28T03:38:07.941Z,13.60
2018-06-28T03:40:37.336Z,13.70
2018-06-28T03:43:06.648Z,13.60
2018-06-28T03:45:36.018Z,13.60
2018-06-28T03:48:05.368Z,13.30
2018-06-28T03:50:34.811Z,13.20
2018-06-28T03:53:04.138Z,13.00
2018-06-28T03:55:33.516Z,13.20
2018-06-28T03:58:02.842Z,13.30
2018-06-28T04:00:32.208Z,13.60
2018-06-28T04:03:01.537Z,13.60
2018-06-28T04:05:30.899Z,13.50
2018-06-28T04:08:00.333Z,13.50
2018-06-28T04:10:29.704Z,13.50
2018-06-28T04:12:59.040Z,13.40
2018-06-28T04:15:28.415Z,13.50
2018-06-28T04:17:58.222Z,13.40
2018-06-28T04:20:27.611Z,13.30
2018-06-28T04:22:56.933Z,13.30
2018-06-28T04:25:26.292Z,13.40
2018-06-28T04:27:55.618Z,13.60
2018-06-28T04:30:24.988Z,13.70
2018-06-28T04:32:54.313Z,13.80
2018-06-28T04:35:23.697Z,14.10
2018-06-28T04:37:53.011Z,14.10
2018-06-28T04:40:22.351Z,14.00
2018-06-28T04:42:51.648Z,14.10
2018-06-28T04:45:21.061Z,14.30
2018-06-28T04:47:50.388Z,14.40
2018-06-28T04:50:19.700Z,14.30
2018-06-28T04:52:49.079Z,14.60
2018-06-28T04:55:18.410Z,14.60
2018-06-28T04:57:47.791Z,14.60
2018-06-28T05:00:17.093Z,14.60
2018-06-28T05:02:46.457Z,15.10
2018-06-28T05:05:15.800Z,15.60
2018-06-28T05:07:45.193Z,15.90
2018-06-28T05:10:15.159Z,16.20
2018-06-28T05:12:44.510Z,16.20
2018-06-28T05:15:13.808Z,16.30
2018-06-28T05:17:43.156Z,16.20
2018-06-28T05:20:12.433Z,16.60
2018-06-28T05:22:41.772Z,16.80
2018-06-28T05:25:11.104Z,17.00
2018-06-28T05:27:40.528Z,17.10
2018-06-28T05:30:09.816Z,17.10
2018-06-28T05:32:39.184Z,17.10
2018-06-28T05:37:37.420Z,17.30
2018-06-28T05:40:07.106Z,17.30
2018-06-28T05:42:36.669Z,16.90
2018-06-28T05:45:06.353Z,17.00
2018-06-28T05:47:35.702Z,17.20
2018-06-28T05:50:05.047Z,17.30
2018-06-28T05:52:34.563Z,17.20
2018-06-28T05:55:03.916Z,17.50
2018-06-28T05:57:33.278Z,18.10
2018-06-28T06:00:02.623Z,18.60
2018-06-28T06:02:31.942Z,19.00
2018-06-28T06:05:01.353Z,19.20
2018-06-28T06:07:30.734Z,19.40
2018-06-28T06:10:00.113Z,19.50
2018-06-28T06:12:29.440Z,19.70
2018-06-28T06:14:58.785Z,19.80
2018-06-28T06:17:28.140Z,19.80
2018-06-28T06:19:57.527Z,19.90
2018-06-28T06:22:26.933Z,20.10
2018-06-28T06:24:56.302Z,20.20
2018-06-28T06:27:25.635Z,20.30
2018-06-28T06:29:55.355Z,20.40
2018-06-28T06:32:24.740Z,20.50
2018-06-28T06:34:54.185Z,20.80
2018-06-28T06:37:23.570Z,21.20
2018-06-28T06:39:52.936Z,21.60
2018-06-28T06:42:22.277Z,21.80
2018-06-28T06:44:51.624Z,21.90
2018-06-28T06:47:20.979Z,21.50
2018-06-28T06:49:50.359Z,21.70
2018-06-28T06:52:19.904Z,21.80
2018-06-28T06:54:49.224Z,22.10
2018-06-28T06:57:18.612Z,22.20
2018-06-28T06:59:47.929Z,22.30
2018-06-28T07:02:17.301Z,22.10
2018-06-28T07:04:46.617Z,21.70
2018-06-28T07:07:16.023Z,21.30
2018-06-28T07:09:45.360Z,21.20
2018-06-28T07:12:14.740Z,21.10
2018-06-28T07:14:44.045Z,21.20
2018-06-28T07:17:13.391Z,21.20
2018-06-28T07:19:42.744Z,21.40
2018-06-28T07:22:12.121Z,21.40
2018-06-28T07:24:41.476Z,21.50
2018-06-28T07:27:10.849Z,21.50
2018-06-28T07:29:40.175Z,21.50
2018-06-28T07:32:09.933Z,21.50
2018-06-28T07:34:39.252Z,21.40
2018-06-28T07:37:08.618Z,21.30
2018-06-28T07:39:38.008Z,21.30
2018-06-28T07:42:07.353Z,21.40
2018-06-28T07:44:36.673Z,21.10
2018-06-28T07:47:05.991Z,21.00
2018-06-28T07:49:35.328Z,20.90
2018-06-28T07:52:04.696Z,20.90
2018-06-28T07:54:34.025Z,20.80
2018-06-28T07:57:03.405Z,20.60
2018-06-28T07:59:32.741Z,20.70
2018-06-28T08:02:02.120Z,20.80
2018-06-28T08:04:31.492Z,20.70
2018-06-28T08:07:00.912Z,20.80
2018-06-28T08:09:30.248Z,20.90
2018-06-28T08:11:59.599Z,21.10
2018-06-28T08:14:29.367Z,21.20
2018-06-28T08:16:58.915Z,21.30
2018-06-28T08:19:28.284Z,21.40
2018-06-28T08:21:57.647Z,21.50
2018-06-28T08:24:27.148Z,21.70
2018-06-28T08:26:56.622Z,21.70
2018-06-28T08:29:25.978Z,21.90
2018-06-28T08:31:55.368Z,22.10
2018-06-28T08:34:24.720Z,22.20
2018-06-28T08:36:54.054Z,22.20
2018-06-28T08:39:23.400Z,22.40
2018-06-28T08:41:52.732Z,22.50
2018-06-28T08:44:22.083Z,22.60
2018-06-28T08:46:51.402Z,22.50
2018-06-28T08:49:20.771Z,22.10
2018-06-28T08:51:50.170Z,21.80
2018-06-28T08:54:19.490Z,21.50
2018-06-28T08:56:48.772Z,21.40
2018-06-28T08:59:18.080Z,21.50
2018-06-28T09:01:47.388Z,21.40
2018-06-28T09:04:16.708Z,21.20
2018-06-28T09:06:46.059Z,21.10
2018-06-28T09:09:15.373Z,21.00
2018-06-28T09:11:44.681Z,21.00
2018-06-28T09:14:14.031Z,21.10
2018-06-28T09:16:43.373Z,21.10
2018-06-28T09:19:12.672Z,21.20
2018-06-28T09:21:42.074Z,21.30
2018-06-28T09:24:11.392Z,21.40
2018-06-28T09:26:40.743Z,21.40
2018-06-28T09:29:10.394Z,21.60
2018-06-28T09:31:39.719Z,21.70
2018-06-28T09:34:09.032Z,21.90
2018-06-28T09:36:38.371Z,21.80
2018-06-28T09:39:09.527Z,21.70
2018-06-28T09:41:38.899Z,21.70
2018-06-28T09:44:08.199Z,21.70
2018-06-28T09:46:37.555Z,21.70
2018-06-28T09:49:06.878Z,21.70
2018-06-28T09:51:36.209Z,21.90
2018-06-28T09:54:05.625Z,21.80
2018-06-28T09:56:34.976Z,21.90
2018-06-28T09:59:04.275Z,22.00
2018-06-28T10:01:33.661Z,22.00
2018-06-28T10:04:02.942Z,22.10
2018-06-28T10:09:01.223Z,22.00
2018-06-28T10:11:31.244Z,22.00
2018-06-28T10:14:00.571Z,21.90
2018-06-28T10:16:30.395Z,21.80
2018-06-28T10:18:59.718Z,21.80
2018-06-28T10:21:29.108Z,21.70
2018-06-28T10:23:58.389Z,21.70
2018-06-28T10:26:27.708Z,21.70
2018-06-28T10:28:57.104Z,21.70
2018-06-28T10:31:26.421Z,21.90
2018-06-28T10:33:55.813Z,22.20
2018-06-28T10:36:25.116Z,22.30
2018-06-28T10:38:54.481Z,22.60
2018-06-28T10:41:23.802Z,22.70
2018-06-28T10:43:53.143Z,22.80
2018-06-28T10:46:22.442Z,22.60
2018-06-28T10:48:51.848Z,22.70
2018-06-28T10:53:50.440Z,22.60
2018-06-28T10:56:19.761Z,22.40
2018-06-28T11:01:17.967Z,22.40
2018-06-28T11:03:47.293Z,22.40
2018-06-28T11:06:16.604Z,22.50
2018-06-28T11:08:45.991Z,22.60
2018-06-28T11:11:15.308Z,22.30
2018-06-28T11:13:44.659Z,22.30
2018-06-28T11:16:13.995Z,22.30
2018-06-28T11:18:43.368Z,22.30
2018-06-28T11:21:12.696Z,22.30
2018-06-28T11:23:42.053Z,22.40
2018-06-28T11:26:11.391Z,22.60
2018-06-28T11:28:40.779Z,22.90
2018-06-28T11:31:10.123Z,23.20
2018-06-28T11:33:39.467Z,23.40
2018-06-28T11:36:09.115Z,23.50
2018-06-28T11:38:38.928Z,23.50
2018-06-28T11:41:08.242Z,23.60
2018-06-28T11:43:37.977Z,23.70
2018-06-28T11:48:36.184Z,23.90
2018-06-28T11:51:05.555Z,23.90
2018-06-28T11:53:34.893Z,23.90
2018-06-28T11:56:04.290Z,23.90
2018-06-28T11:58:33.701Z,23.50
2018-06-28T12:01:03.063Z,23.40
2018-06-28T12:06:01.460Z,23.20
2018-06-28T12:08:30.848Z,23.50
2018-06-28T12:11:00.188Z,23.60
2018-06-28T12:13:29.525Z,23.50
2018-06-28T12:15:58.896Z,23.60
2018-06-28T12:18:28.207Z,23.70
2018-06-28T12:20:57.912Z,23.70
2018-06-28T12:23:27.247Z,23.80
2018-06-28T12:28:25.533Z,24.50
2018-06-28T12:30:55.064Z,24.30
2018-06-28T12:33:24.420Z,24.20
2018-06-28T12:35:57.971Z,23.90
2018-06-28T12:38:27.587Z,23.80
2018-06-28T12:40:57.024Z,23.80
2018-06-28T12:43:28.339Z,23.80
2018-06-28T12:45:58.648Z,23.80
2018-06-28T12:48:27.956Z,23.70
2018-06-28T12:50:57.364Z,23.80
2018-06-28T12:53:26.705Z,23.80
2018-06-28T12:56:28.876Z,23.90
2018-06-28T12:58:59.759Z,24.00
2018-06-28T13:01:29.493Z,23.90
2018-06-28T13:03:59.100Z,23.80
2018-06-28T13:06:28.569Z,23.50
2018-06-28T13:08:58.419Z,23.50
2018-06-28T13:11:28.225Z,23.50
2018-06-28T13:13:57.544Z,23.50
2018-06-28T13:16:27.982Z,23.30
2018-06-28T13:18:57.357Z,23.30
2018-06-28T13:21:26.733Z,23.20
2018-06-28T13:23:56.072Z,23.20
2018-06-28T13:26:25.924Z,23.20
2018-06-28T13:28:55.279Z,23.30
2018-06-28T13:31:24.661Z,23.20
2018-06-28T13:33:54.020Z,23.30
2018-06-28T13:36:23.406Z,23.40
2018-06-28T13:38:52.757Z,23.50
2018-06-28T13:41:22.257Z,23.40
2018-06-28T13:43:51.457Z,23.40
2018-06-28T13:46:20.853Z,23.40
2018-06-28T13:48:50.183Z,23.20
2018-06-28T13:51:19.489Z,23.00
2018-06-28T13:53:48.860Z,22.90
2018-06-28T13:56:18.181Z,22.80
2018-06-28T13:58:47.936Z,22.70
2018-06-28T14:01:17.257Z,22.70
2018-06-28T14:03:46.664Z,22.60
2018-06-28T14:06:16.230Z,22.70
2018-06-28T14:08:45.603Z,22.70
2018-06-28T14:11:14.918Z,22.60
2018-06-28T14:13:44.264Z,22.50
2018-06-28T14:16:13.907Z,22.40
2018-06-28T14:18:43.538Z,22.00
2018-06-28T14:21:13.143Z,21.50
2018-06-28T14:23:42.540Z,21.10
2018-06-28T14:26:11.883Z,20.80
2018-06-28T14:28:41.286Z,20.60
2018-06-28T14:31:12.033Z,20.50
2018-06-28T14:33:41.465Z,20.40
2018-06-28T14:36:10.767Z,20.40
2018-06-28T14:38:40.328Z,20.30
2018-06-28T14:41:09.968Z,20.30
2018-06-28T14:43:39.379Z,20.20
2018-06-28T14:46:08.813Z,20.20
2018-06-28T14:48:38.424Z,20.20
2018-06-28T14:51:09.116Z,20.10
2018-06-28T14:53:38.408Z,20.00
2018-06-28T14:58:36.742Z,19.70
2018-06-28T15:01:06.153Z,19.60
2018-06-28T15:03:35.995Z,19.50
2018-06-28T15:06:05.387Z,19.50
2018-06-28T15:08:34.745Z,19.40
2018-06-28T15:11:04.120Z,19.30
2018-06-28T15:16:02.382Z,19.30
2018-06-28T15:18:31.742Z,19.20
2018-06-28T15:21:02.201Z,19.30
2018-06-28T15:26:00.919Z,19.50
2018-06-28T15:28:30.247Z,19.50
2018-06-28T15:30:59.612Z,19.60
2018-06-28T15:33:28.912Z,19.50
2018-06-28T15:35:58.260Z,19.60
2018-06-28T15:38:27.639Z,19.50
2018-06-28T15:40:57.148Z,19.40
2018-06-28T15:43:27.485Z,19.40
2018-06-28T15:45:56.891Z,19.40
2018-06-28T15:48:26.206Z,19.40
2018-06-28T15:50:55.515Z,19.50
2018-06-28T15:53:24.869Z,19.40
2018-06-28T15:55:54.225Z,19.30
2018-06-28T15:58:23.568Z,19.10
2018-06-28T16:00:52.959Z,19.00
2018-06-28T16:03:22.323Z,19.00
2018-06-28T16:05:51.784Z,19.10
2018-06-28T16:08:21.165Z,19.00
2018-06-28T16:10:50.488Z,19.00
2018-06-28T16:13:19.811Z,19.10
2018-06-28T16:15:49.138Z,19.20
2018-06-28T16:18:18.499Z,19.10
2018-06-28T16:20:47.835Z,19.10
2018-06-28T16:23:17.233Z,19.00
2018-06-28T16:25:46.543Z,19.00
2018-06-28T16:28:16.772Z,19.10
2018-06-28T16:30:46.157Z,19.00
2018-06-28T16:33:15.503Z,18.90
2018-06-28T16:35:44.890Z,18.80
2018-06-28T16:38:14.238Z,18.70
2018-06-28T16:40:43.555Z,18.70
2018-06-28T16:43:12.897Z,18.70
2018-06-28T16:45:42.227Z,18.60
2018-06-28T16:48:11.549Z,18.60
2018-06-28T16:50:40.884Z,18.60
2018-06-28T16:53:10.308Z,18.60
2018-06-28T16:58:09.408Z,18.70
2018-06-28T17:00:39.165Z,18.70
2018-06-28T17:03:11.244Z,18.60
2018-06-28T17:05:40.597Z,18.70
2018-06-28T17:08:09.963Z,18.50
2018-06-28T17:10:39.731Z,18.40
2018-06-28T17:13:09.073Z,18.20
2018-06-28T17:15:38.759Z,18.20
2018-06-28T17:18:08.078Z,18.30
2018-06-28T17:20:37.492Z,18.20
2018-06-28T17:23:06.870Z,18.30
2018-06-28T17:25:36.650Z,18.10
2018-06-28T17:28:06.439Z,18.20
2018-06-28T17:30:35.832Z,18.20
2018-06-28T17:33:06.321Z,18.10
2018-06-28T17:35:35.835Z,18.20
2018-06-28T17:38:05.192Z,18.10
2018-06-28T17:40:34.600Z,18.20
2018-06-28T17:43:03.955Z,18.20
2018-06-28T17:45:33.351Z,18.10
2018-06-28T17:48:02.684Z,18.00
2018-06-28T17:50:32.044Z,18.00
2018-06-28T17:53:01.384Z,18.00
2018-06-28T17:55:30.770Z,17.90
2018-06-28T17:58:00.110Z,18.00
2018-06-28T18:00:30.355Z,17.80
2018-06-28T18:02:59.708Z,17.70
2018-06-28T18:05:29.076Z,17.70
2018-06-28T18:07:58.413Z,17.70
2018-06-28T18:10:27.763Z,17.70
2018-06-28T18:12:57.105Z,17.50
2018-06-28T18:15:26.496Z,17.50
2018-06-28T18:17:55.831Z,17.60
2018-06-28T18:20:25.385Z,17.70
2018-06-28T18:22:54.771Z,17.70
2018-06-28T18:25:24.111Z,17.50
2018-06-28T18:27:53.480Z,17.50
2018-06-28T18:30:22.843Z,17.50
2018-06-28T18:32:52.213Z,17.40
2018-06-28T18:35:21.596Z,17.50
2018-06-28T18:37:50.955Z,17.50
2018-06-28T18:40:20.285Z,17.60
2018-06-28T18:42:49.966Z,17.50
2018-06-28T18:45:19.792Z,17.20
2018-06-28T18:47:49.700Z,17.10
2018-06-28T18:50:19.633Z,17.10
2018-06-28T18:52:50.188Z,17.20
2018-06-28T18:57:49.383Z,17.30
2018-06-28T19:02:48.309Z,17.00
2018-06-28T19:05:18.068Z,16.90
2018-06-28T19:07:48.104Z,16.90
2018-06-28T19:10:23.018Z,16.90
2018-06-28T19:12:52.452Z,17.00
2018-06-28T19:15:27.465Z,16.90
2018-06-28T19:17:57.588Z,16.80
2018-06-28T19:20:27.399Z,16.90
2018-06-28T19:23:02.407Z,16.70
2018-06-28T19:28:01.911Z,16.70
2018-06-28T19:30:37.108Z,16.60
2018-06-28T19:33:06.816Z,16.60
2018-06-28T19:35:36.279Z,16.70
2018-06-28T19:38:06.373Z,16.70
2018-06-28T19:40:42.140Z,16.60
2018-06-28T19:43:11.943Z,16.50
2018-06-28T19:45:41.864Z,16.50
2018-06-28T19:48:11.800Z,16.50
2018-06-28T19:50:46.864Z,16.40
2018-06-28T19:53:17.755Z,16.40
2018-06-28T19:55:47.729Z,16.60
2018-06-28T19:58:17.455Z,16.60
2018-06-28T20:00:52.429Z,16.50
2018-06-28T20:03:27.429Z,16.50
2018-06-28T20:05:57.388Z,16.60
2018-06-28T20:08:27.587Z,16.70
2018-06-28T20:10:57.460Z,16.70
2018-06-28T20:13:32.236Z,16.70
2018-06-28T20:16:06.946Z,16.70
2018-06-28T20:20:48.727Z,16.70
2018-06-28T20:23:18.134Z,16.60
2018-06-28T20:25:48.866Z,16.70
2018-06-28T20:28:23.875Z,16.80
2018-06-28T20:30:58.613Z,16.70
2018-06-28T20:33:33.298Z,16.70
2018-06-28T20:36:03.224Z,16.60
2018-06-28T20:38:34.261Z,16.60
2018-06-28T20:41:04.753Z,16.60
2018-06-28T20:43:36.553Z,16.50
2018-06-28T20:46:06.431Z,16.50
2018-06-28T20:48:35.969Z,16.50
2018-06-28T20:51:05.765Z,16.50
2018-06-28T20:53:35.593Z,16.40
2018-06-28T20:56:05.353Z,16.50
2018-06-28T20:58:36.708Z,16.50
2018-06-28T21:01:07.773Z,16.50
2018-06-28T21:03:37.556Z,16.50
2018-06-28T21:06:07.884Z,16.70
2018-06-28T21:08:37.324Z,16.70
2018-06-28T21:11:07.269Z,16.60
2018-06-28T21:13:36.988Z,16.60
2018-06-28T21:16:07.085Z,16.60
2018-06-28T21:18:37.376Z,16.60
2018-06-28T21:21:06.771Z,16.60
2018-06-28T21:23:36.900Z,16.50
2018-06-28T21:26:07.130Z,16.40
2018-06-28T21:28:36.572Z,16.40
2018-06-28T21:31:06.001Z,16.40
2018-06-28T21:33:35.420Z,16.40
2018-06-28T21:36:05.087Z,16.40
2018-06-28T21:38:34.529Z,16.50
2018-06-28T21:41:05.369Z,16.50
2018-06-28T21:43:39.000Z,16.40
2018-06-28T21:46:09.781Z,16.40
2018-06-28T21:48:39.207Z,16.40
2018-06-28T21:51:08.716Z,16.50
2018-06-28T21:53:38.129Z,16.50
2018-06-28T21:56:07.572Z,16.50
2018-06-28T21:58:37.348Z,16.40
2018-06-28T22:03:40.017Z,16.40
2018-06-28T22:06:12.189Z,16.50
2018-06-28T22:08:42.509Z,16.40
2018-06-28T22:13:41.480Z,16.40
2018-06-28T22:16:11.037Z,16.30
2018-06-28T22:21:09.613Z,16.30
2018-06-28T22:23:39.100Z,16.40
2018-06-28T22:26:08.659Z,16.40
2018-06-28T22:31:07.096Z,16.30
2018-06-28T22:33:36.475Z,16.30
2018-06-28T22:36:05.787Z,16.20
2018-06-28T22:38:35.157Z,16.10
2018-06-28T22:41:04.478Z,16.20
2018-06-28T22:43:33.830Z,16.20
2018-06-28T22:46:03.183Z,16.20
2018-06-28T22:48:32.560Z,16.20
2018-06-28T22:51:01.910Z,16.20
2018-06-28T22:53:31.313Z,16.20
2018-06-28T22:56:00.681Z,16.20
2018-06-28T22:58:30.039Z,16.20
2018-06-28T23:00:59.613Z,16.10
2018-06-28T23:03:28.994Z,16.20
2018-06-28T23:05:58.340Z,16.10
2018-06-28T23:08:27.760Z,16.20
2018-06-28T23:10:57.116Z,16.20
2018-06-28T23:13:26.471Z,16.20
2018-06-28T23:15:55.838Z,16.20
2018-06-28T23:18:25.248Z,16.30
2018-06-28T23:20:54.598Z,16.20
2018-06-28T23:23:23.953Z,16.20
2018-06-28T23:25:53.354Z,16.20
2018-06-28T23:28:22.692Z,16.20
2018-06-28T23:30:52.076Z,16.40
2018-06-28T23:33:21.444Z,16.50
2018-06-28T23:35:50.804Z,16.40
2018-06-28T23:38:20.164Z,16.40
2018-06-28T23:40:49.565Z,16.40
2018-06-28T23:43:18.963Z,16.50
2018-06-28T23:45:48.468Z,16.40
2018-06-28T23:48:17.805Z,16.30
2018-06-28T23:50:47.206Z,16.30
2018-06-28T23:53:16.541Z,16.40
2018-06-28T23:55:45.891Z,16.40
2018-06-28T23:58:15.210Z,16.30
